sensor_id;sensor_type;location;lat;lon;timestamp;pressure;altitude;pressure_sealevel;temperature;humidity
9141;BME280;46330;50.822;7.126;2023-03-20T00:01:59;101255.56;;;8.98;100.00
9141;BME280;46330;50.822;7.126;2023-03-20T00:04:27;101250.34;;;8.98;100.00
9141;BME280;46330;50.822;7.126;2023-03-20T00:06:56;101253.81;;;8.97;100.00
9141;BME280;46330;50.822;7.126;2023-03-20T00:09:23;101260.78;;;8.95;100.00
9141;BME280;46330;50.822;7.126;2023-03-20T00:11:54;101257.31;;;8.89;100.00
9141;BME280;46330;50.822;7.126;2023-03-20T00:14:22;101263.41;;;8.88;100.00
9141;BME280;46330;50.822;7.126;2023-03-20T00:16:51;101270.38;;;8.86;100.00
9141;BME280;46330;50.822;7.126;2023-03-20T00:19:21;101277.34;;;8.84;100.00
9141;BME280;46330;50.822;7.126;2023-03-20T00:21:51;101279.94;;;8.87;100.00
9141;BME280;46330;50.822;7.126;2023-03-20T00:24:19;101274.75;;;8.79;100.00
9141;BME280;46330;50.822;7.126;2023-03-20T00:26:49;101280.81;;;8.86;100.00
9141;BME280;46330;50.822;7.126;2023-03-20T00:29:21;101277.34;;;8.90;100.00
9141;BME280;46330;50.822;7.126;2023-03-20T00:31:50;101268.63;;;8.88;100.00
9141;BME280;46330;50.822;7.126;2023-03-20T00:34:20;101277.31;;;8.91;100.00
9141;BME280;46330;50.822;7.126;2023-03-20T00:36:49;101285.16;;;8.88;100.00
9141;BME280;46330;50.822;7.126;2023-03-20T00:39:17;101286.91;;;8.92;100.00
9141;BME280;46330;50.822;7.126;2023-03-20T00:41:49;101292.13;;;8.89;100.00
9141;BME280;46330;50.822;7.126;2023-03-20T00:44:23;101289.50;;;8.86;100.00
9141;BME280;46330;50.822;7.126;2023-03-20T00:46:53;101287.78;;;8.90;100.00
9141;BME280;46330;50.822;7.126;2023-03-20T00:49:25;101289.50;;;8.88;100.00
9141;BME280;46330;50.822;7.126;2023-03-20T00:51:53;101295.59;;;8.79;100.00
9141;BME280;46330;50.822;7.126;2023-03-20T00:54:23;101295.59;;;8.79;100.00
9141;BME280;46330;50.822;7.126;2023-03-20T00:56:55;101292.13;;;8.80;100.00
9141;BME280;46330;50.822;7.126;2023-03-20T00:59:29;101294.72;;;8.79;100.00
9141;BME280;46330;50.822;7.126;2023-03-20T01:01:59;101293.00;;;8.81;100.00
9141;BME280;46330;50.822;7.126;2023-03-20T01:04:33;101299.94;;;8.83;100.00
9141;BME280;46330;50.822;7.126;2023-03-20T01:07:03;101291.25;;;8.80;100.00
9141;BME280;46330;50.822;7.126;2023-03-20T01:09:31;101302.56;;;8.79;100.00
9141;BME280;46330;50.822;7.126;2023-03-20T01:11:59;101306.03;;;8.73;100.00
9141;BME280;46330;50.822;7.126;2023-03-20T01:14:29;101309.53;;;8.74;100.00
9141;BME280;46330;50.822;7.126;2023-03-20T01:16:57;101297.34;;;8.76;100.00
9141;BME280;46330;50.822;7.126;2023-03-20T01:19:24;101297.34;;;8.77;100.00
9141;BME280;46330;50.822;7.126;2023-03-20T01:21:52;101304.31;;;8.68;100.00
9141;BME280;46330;50.822;7.126;2023-03-20T01:24:20;101303.44;;;8.61;100.00
9141;BME280;46330;50.822;7.126;2023-03-20T01:26:48;101299.09;;;8.63;100.00
9141;BME280;46330;50.822;7.126;2023-03-20T01:29:20;101290.41;;;8.64;100.00
9141;BME280;46330;50.822;7.126;2023-03-20T01:31:50;101306.91;;;8.63;100.00
9141;BME280;46330;50.822;7.126;2023-03-20T01:34:20;101295.63;;;8.61;100.00
9141;BME280;46330;50.822;7.126;2023-03-20T01:36:51;101300.84;;;8.64;100.00
9141;BME280;46330;50.822;7.126;2023-03-20T01:39:20;101304.31;;;8.58;100.00
9141;BME280;46330;50.822;7.126;2023-03-20T01:41:51;101306.06;;;8.61;100.00
9141;BME280;46330;50.822;7.126;2023-03-20T01:44:23;101299.09;;;8.57;100.00
9141;BME280;46330;50.822;7.126;2023-03-20T01:46:57;101297.38;;;8.60;100.00
9141;BME280;46330;50.822;7.126;2023-03-20T01:50:12;101306.06;;;8.61;100.00
9141;BME280;46330;50.822;7.126;2023-03-20T01:52:47;101292.16;;;8.60;100.00
9141;BME280;46330;50.822;7.126;2023-03-20T01:55:17;101290.41;;;8.62;100.00
9141;BME280;46330;50.822;7.126;2023-03-20T01:57:53;101286.06;;;8.63;100.00
9141;BME280;46330;50.822;7.126;2023-03-20T02:00:23;101282.59;;;8.67;100.00
9141;BME280;46330;50.822;7.126;2023-03-20T02:02:52;101279.13;;;8.60;100.00
9141;BME280;46330;50.822;7.126;2023-03-20T02:05:47;101278.25;;;8.58;100.00
9141;BME280;46330;50.822;7.126;2023-03-20T02:08:21;101270.41;;;8.63;100.00
9141;BME280;46330;50.822;7.126;2023-03-20T02:10:55;101268.69;;;8.63;100.00
9141;BME280;46330;50.822;7.126;2023-03-20T02:13:28;101267.81;;;8.61;100.00
9141;BME280;46330;50.822;7.126;2023-03-20T02:16:01;101268.69;;;8.65;100.00
9141;BME280;46330;50.822;7.126;2023-03-20T02:18:55;101277.38;;;8.59;100.00
9141;BME280;46330;50.822;7.126;2023-03-20T02:22:05;101280.84;;;8.66;100.00
9141;BME280;46330;50.822;7.126;2023-03-20T02:25:18;101283.44;;;8.60;100.00
9141;BME280;46330;50.822;7.126;2023-03-20T02:28:18;101274.78;;;8.58;100.00
9141;BME280;46330;50.822;7.126;2023-03-20T02:31:01;101287.81;;;8.53;100.00
9141;BME280;46330;50.822;7.126;2023-03-20T02:39:56;101293.88;;;8.51;100.00
9141;BME280;46330;50.822;7.126;2023-03-20T02:42:33;101300.00;;;8.53;100.00
9141;BME280;46330;50.822;7.126;2023-03-20T02:45:12;101307.78;;;8.54;100.00
9141;BME280;46330;50.822;7.126;2023-03-20T02:47:48;101293.91;;;8.55;100.00
9141;BME280;46330;50.822;7.126;2023-03-20T02:50:26;101279.13;;;8.56;100.00
9141;BME280;46330;50.822;7.126;2023-03-20T02:53:04;101277.38;;;8.61;100.00
9141;BME280;46330;50.822;7.126;2023-03-20T02:55:40;101276.53;;;8.62;100.00
9141;BME280;46330;50.822;7.126;2023-03-20T02:58:14;101287.81;;;8.61;100.00
9141;BME280;46330;50.822;7.126;2023-03-20T03:00:49;101288.66;;;8.66;100.00
9141;BME280;46330;50.822;7.126;2023-03-20T03:03:24;101283.44;;;8.71;100.00
9141;BME280;46330;50.822;7.126;2023-03-20T03:05:55;101269.53;;;8.67;100.00
9141;BME280;46330;50.822;7.126;2023-03-20T03:08:29;101261.72;;;8.69;100.00
9141;BME280;46330;50.822;7.126;2023-03-20T03:11:03;101260.00;;;8.61;100.00
9141;BME280;46330;50.822;7.126;2023-03-20T03:13:35;101269.56;;;8.50;100.00
9141;BME280;46330;50.822;7.126;2023-03-20T03:16:07;101286.94;;;8.35;100.00
9141;BME280;46330;50.822;7.126;2023-03-20T03:18:39;101287.81;;;8.28;100.00
9141;BME280;46330;50.822;7.126;2023-03-20T03:21:10;101293.84;;;8.25;100.00
9141;BME280;46330;50.822;7.126;2023-03-20T03:23:42;101286.94;;;8.29;100.00
9141;BME280;46330;50.822;7.126;2023-03-20T03:26:17;101295.63;;;8.32;100.00
9141;BME280;46330;50.822;7.126;2023-03-20T03:28:49;101295.66;;;8.31;100.00
9141;BME280;46330;50.822;7.126;2023-03-20T03:31:20;101296.50;;;8.30;100.00
9141;BME280;46330;50.822;7.126;2023-03-20T03:33:50;101292.16;;;8.30;100.00
9141;BME280;46330;50.822;7.126;2023-03-20T03:36:29;101300.84;;;8.35;100.00
9141;BME280;46330;50.822;7.126;2023-03-20T03:39:11;101306.06;;;8.37;100.00
9141;BME280;46330;50.822;7.126;2023-03-20T03:41:50;101314.75;;;8.36;100.00
9141;BME280;46330;50.822;7.126;2023-03-20T03:44:24;101319.97;;;8.31;100.00
9141;BME280;46330;50.822;7.126;2023-03-20T03:46:57;101313.00;;;8.32;100.00
9141;BME280;46330;50.822;7.126;2023-03-20T03:49:30;101299.97;;;8.35;100.00
9141;BME280;46330;50.822;7.126;2023-03-20T03:52:02;101286.94;;;8.38;100.00
9141;BME280;46330;50.822;7.126;2023-03-20T03:54:35;101274.78;;;8.40;100.00
9141;BME280;46330;50.822;7.126;2023-03-20T03:57:30;101274.78;;;8.41;100.00
9141;BME280;46330;50.822;7.126;2023-03-20T04:00:02;101286.94;;;8.39;100.00
9141;BME280;46330;50.822;7.126;2023-03-20T04:02:39;101273.91;;;8.38;100.00
9141;BME280;46330;50.822;7.126;2023-03-20T04:05:08;101286.09;;;8.34;100.00
9141;BME280;46330;50.822;7.126;2023-03-20T04:07:37;101264.31;;;8.26;100.00
9141;BME280;46330;50.822;7.126;2023-03-20T04:10:06;101277.34;;;8.20;100.00
9141;BME280;46330;50.822;7.126;2023-03-20T04:12:37;101279.09;;;8.12;100.00
9141;BME280;46330;50.822;7.126;2023-03-20T04:15:09;101306.84;;;8.07;100.00
9141;BME280;46330;50.822;7.126;2023-03-20T04:17:38;101305.13;;;8.07;100.00
9141;BME280;46330;50.822;7.126;2023-03-20T04:20:08;101302.50;;;8.04;100.00
9141;BME280;46330;50.822;7.126;2023-03-20T04:22:36;101301.63;;;7.95;100.00
9141;BME280;46330;50.822;7.126;2023-03-20T04:25:18;101309.47;;;7.93;100.00
9141;BME280;46330;50.822;7.126;2023-03-20T04:27:49;101313.78;;;7.96;100.00
9141;BME280;46330;50.822;7.126;2023-03-20T04:30:39;101312.06;;;8.02;100.00
9141;BME280;46330;50.822;7.126;2023-03-20T04:33:24;101312.06;;;8.04;100.00
9141;BME280;46330;50.822;7.126;2023-03-20T04:36:21;101312.97;;;8.09;100.00
9141;BME280;46330;50.822;7.126;2023-03-20T04:38:51;101306.88;;;8.13;100.00
9141;BME280;46330;50.822;7.126;2023-03-20T04:41:22;101306.00;;;8.14;100.00
9141;BME280;46330;50.822;7.126;2023-03-20T04:43:55;101308.59;;;8.11;100.00
9141;BME280;46330;50.822;7.126;2023-03-20T04:46:23;101307.72;;;8.07;100.00
9141;BME280;46330;50.822;7.126;2023-03-20T04:48:51;101305.13;;;8.06;100.00
9141;BME280;46330;50.822;7.126;2023-03-20T04:51:19;101307.75;;;8.09;100.00
9141;BME280;46330;50.822;7.126;2023-03-20T04:53:49;101308.63;;;8.13;100.00
9141;BME280;46330;50.822;7.126;2023-03-20T04:56:17;101295.59;;;8.13;100.00
9141;BME280;46330;50.822;7.126;2023-03-20T04:58:47;101292.13;;;8.06;100.00
9141;BME280;46330;50.822;7.126;2023-03-20T05:01:17;101292.97;;;8.05;100.00
9141;BME280;46330;50.822;7.126;2023-03-20T05:03:45;101287.75;;;8.02;100.00
9141;BME280;46330;50.822;7.126;2023-03-20T05:06:13;101284.28;;;8.03;100.00
9141;BME280;46330;50.822;7.126;2023-03-20T05:08:43;101279.94;;;8.02;100.00
9141;BME280;46330;50.822;7.126;2023-03-20T05:11:11;101271.28;;;8.00;100.00
9141;BME280;46330;50.822;7.126;2023-03-20T05:13:57;101279.03;;;7.91;100.00
9141;BME280;46330;50.822;7.126;2023-03-20T05:16:51;101283.38;;;7.86;100.00
9141;BME280;46330;50.822;7.126;2023-03-20T05:19:21;101285.09;;;7.85;100.00
9141;BME280;46330;50.822;7.126;2023-03-20T05:22:09;101279.91;;;7.84;100.00
9141;BME280;46330;50.822;7.126;2023-03-20T05:24:55;101272.97;;;7.84;100.00
9141;BME280;46330;50.822;7.126;2023-03-20T05:27:44;101264.28;;;7.82;100.00
9141;BME280;46330;50.822;7.126;2023-03-20T05:30:33;101266.88;;;7.81;100.00
9141;BME280;46330;50.822;7.126;2023-03-20T05:33:21;101274.66;;;7.67;100.00
9141;BME280;46330;50.822;7.126;2023-03-20T05:36:08;101272.03;;;7.64;100.00
9141;BME280;46330;50.822;7.126;2023-03-20T05:38:51;101272.03;;;7.58;100.00
9141;BME280;46330;50.822;7.126;2023-03-20T05:41:39;101270.28;;;7.60;100.00
9141;BME280;46330;50.822;7.126;2023-03-20T05:44:22;101277.25;;;7.61;100.00
9141;BME280;46330;50.822;7.126;2023-03-20T05:47:09;101274.63;;;7.55;100.00
9141;BME280;46330;50.822;7.126;2023-03-20T05:49:53;101285.88;;;7.54;100.00
9141;BME280;46330;50.822;7.126;2023-03-20T05:52:33;101273.75;;;7.51;100.00
9141;BME280;46330;50.822;7.126;2023-03-20T05:55:27;101277.19;;;7.50;100.00
9141;BME280;46330;50.822;7.126;2023-03-20T05:58:21;101276.34;;;7.50;100.00
9141;BME280;46330;50.822;7.126;2023-03-20T06:01:05;101291.09;;;7.49;100.00
9141;BME280;46330;50.822;7.126;2023-03-20T06:03:55;101291.09;;;7.52;100.00
9141;BME280;46330;50.822;7.126;2023-03-20T06:06:43;101302.41;;;7.59;100.00
9141;BME280;46330;50.822;7.126;2023-03-20T06:09:11;101303.31;;;7.66;100.00
9141;BME280;46330;50.822;7.126;2023-03-20T06:11:39;101301.56;;;7.71;100.00
9141;BME280;46330;50.822;7.126;2023-03-20T06:14:07;101306.78;;;7.77;100.00
9141;BME280;46330;50.822;7.126;2023-03-20T06:16:38;101308.53;;;7.79;100.00
9141;BME280;46330;50.822;7.126;2023-03-20T06:19:08;101294.66;;;7.86;100.00
9141;BME280;46330;50.822;7.126;2023-03-20T06:21:37;101299.03;;;7.90;100.00
9141;BME280;46330;50.822;7.126;2023-03-20T06:24:10;101302.50;;;7.98;100.00
9141;BME280;46330;50.822;7.126;2023-03-20T06:26:39;101299.91;;;8.01;100.00
9141;BME280;46330;50.822;7.126;2023-03-20T06:29:10;101298.16;;;8.03;100.00
9141;BME280;46330;50.822;7.126;2023-03-20T06:31:38;101301.66;;;8.02;100.00
9141;BME280;46330;50.822;7.126;2023-03-20T06:34:10;101298.16;;;8.06;100.00
9141;BME280;46330;50.822;7.126;2023-03-20T06:36:42;101293.84;;;8.08;100.00
9141;BME280;46330;50.822;7.126;2023-03-20T06:39:18;101281.69;;;8.15;100.00
9141;BME280;46330;50.822;7.126;2023-03-20T06:41:47;101288.63;;;8.22;100.00
9141;BME280;46330;50.822;7.126;2023-03-20T06:44:15;101293.91;;;8.30;100.00
9141;BME280;46330;50.822;7.126;2023-03-20T06:47:02;101297.34;;;8.38;100.00
9141;BME280;46330;50.822;7.126;2023-03-20T06:49:30;101305.22;;;8.53;100.00
9141;BME280;46330;50.822;7.126;2023-03-20T06:51:58;101301.72;;;8.61;99.34
9141;BME280;46330;50.822;7.126;2023-03-20T06:54:27;101309.53;;;8.68;98.37
9141;BME280;46330;50.822;7.126;2023-03-20T06:56:56;101307.78;;;8.67;96.60
9141;BME280;46330;50.822;7.126;2023-03-20T06:59:24;101300.81;;;8.85;96.18
9141;BME280;46330;50.822;7.126;2023-03-20T07:01:56;101306.03;;;8.85;93.43
9141;BME280;46330;50.822;7.126;2023-03-20T07:04:26;101304.28;;;8.92;93.19
9141;BME280;46330;50.822;7.126;2023-03-20T07:06:57;101315.59;;;8.73;93.57
9141;BME280;46330;50.822;7.126;2023-03-20T07:09:25;101309.50;;;8.84;93.58
9141;BME280;46330;50.822;7.126;2023-03-20T07:11:55;101313.88;;;8.67;93.50
9141;BME280;46330;50.822;7.126;2023-03-20T07:14:24;101316.50;;;8.72;93.49
9141;BME280;46330;50.822;7.126;2023-03-20T07:16:56;101321.69;;;8.73;94.53
9141;BME280;46330;50.822;7.126;2023-03-20T07:19:24;101325.16;;;8.77;94.34
9141;BME280;46330;50.822;7.126;2023-03-20T07:21:59;101332.09;;;8.88;94.65
9141;BME280;46330;50.822;7.126;2023-03-20T07:24:37;101328.63;;;8.89;92.63
9141;BME280;46330;50.822;7.126;2023-03-20T07:27:07;101345.13;;;9.14;92.55
9141;BME280;46330;50.822;7.126;2023-03-20T07:29:35;101357.28;;;9.27;93.29
9141;BME280;46330;50.822;7.126;2023-03-20T07:32:10;101355.53;;;9.26;93.49
9141;BME280;46330;50.822;7.126;2023-03-20T07:34:45;101362.41;;;9.51;91.70
9141;BME280;46330;50.822;7.126;2023-03-20T07:37:17;101365.81;;;9.73;89.56
9141;BME280;46330;50.822;7.126;2023-03-20T07:39:55;101365.41;;;10.52;85.63
9141;BME280;46330;50.822;7.126;2023-03-20T07:42:30;101374.69;;;10.88;83.18
9141;BME280;46330;50.822;7.126;2023-03-20T07:45:09;101373.25;;;10.47;84.21
9141;BME280;46330;50.822;7.126;2023-03-20T07:47:38;101370.00;;;10.07;83.60
9141;BME280;46330;50.822;7.126;2023-03-20T07:50:06;101374.38;;;10.08;84.86
9141;BME280;46330;50.822;7.126;2023-03-20T07:52:34;101377.00;;;10.02;84.62
9141;BME280;46330;50.822;7.126;2023-03-20T07:55:02;101377.03;;;9.90;85.29
9141;BME280;46330;50.822;7.126;2023-03-20T07:57:32;101372.69;;;9.92;86.06
9141;BME280;46330;50.822;7.126;2023-03-20T08:00:00;101371.91;;;9.72;84.57
9141;BME280;46330;50.822;7.126;2023-03-20T08:02:37;101365.75;;;9.90;85.93
9141;BME280;46330;50.822;7.126;2023-03-20T08:05:05;101376.19;;;9.90;85.73
9141;BME280;46330;50.822;7.126;2023-03-20T08:07:34;101381.38;;;9.97;84.97
9141;BME280;46330;50.822;7.126;2023-03-20T08:10:03;101379.75;;;9.77;84.25
9141;BME280;46330;50.822;7.126;2023-03-20T08:12:32;101386.78;;;9.53;82.48
9141;BME280;46330;50.822;7.126;2023-03-20T08:15:00;101388.53;;;9.50;82.00
9141;BME280;46330;50.822;7.126;2023-03-20T08:17:28;101387.66;;;9.54;82.62
9141;BME280;46330;50.822;7.126;2023-03-20T08:19:56;101393.69;;;9.66;82.59
9141;BME280;46330;50.822;7.126;2023-03-20T08:22:23;101396.31;;;9.68;82.59
9141;BME280;46330;50.822;7.126;2023-03-20T08:24:51;101402.38;;;9.68;82.42
9141;BME280;46330;50.822;7.126;2023-03-20T08:27:19;101407.56;;;9.78;82.22
9141;BME280;46330;50.822;7.126;2023-03-20T08:29:48;101405.84;;;9.78;81.30
9141;BME280;46330;50.822;7.126;2023-03-20T08:32:17;101402.38;;;9.74;81.71
9141;BME280;46330;50.822;7.126;2023-03-20T08:34:45;101408.50;;;9.70;80.75
9141;BME280;46330;50.822;7.126;2023-03-20T08:37:12;101406.69;;;9.88;82.33
9141;BME280;46330;50.822;7.126;2023-03-20T08:39:41;101413.69;;;9.72;82.37
9141;BME280;46330;50.822;7.126;2023-03-20T08:42:09;101409.34;;;9.77;81.44
9141;BME280;46330;50.822;7.126;2023-03-20T08:44:37;101407.59;;;9.76;82.17
9141;BME280;46330;50.822;7.126;2023-03-20T08:47:06;101404.16;;;9.66;77.50
9141;BME280;46330;50.822;7.126;2023-03-20T08:49:36;101397.22;;;9.53;77.91
9141;BME280;46330;50.822;7.126;2023-03-20T08:52:04;101398.91;;;9.69;79.34
9141;BME280;46330;50.822;7.126;2023-03-20T08:54:32;101404.94;;;9.90;78.98
9141;BME280;46330;50.822;7.126;2023-03-20T08:57:00;101399.66;;;10.00;78.93
9141;BME280;46330;50.822;7.126;2023-03-20T08:59:28;101404.84;;;10.11;77.60
9141;BME280;46330;50.822;7.126;2023-03-20T09:01:56;101402.16;;;10.27;76.05
9141;BME280;46330;50.822;7.126;2023-03-20T09:04:26;101405.59;;;10.36;76.86
9141;BME280;46330;50.822;7.126;2023-03-20T09:06:54;101407.63;;;9.65;76.18
9141;BME280;46330;50.822;7.126;2023-03-20T09:09:22;101400.63;;;9.80;75.31
9141;BME280;46330;50.822;7.126;2023-03-20T09:11:54;101407.53;;;9.91;75.58
9141;BME280;46330;50.822;7.126;2023-03-20T09:14:24;101411.69;;;10.38;76.11
9141;BME280;46330;50.822;7.126;2023-03-20T09:16:52;101404.63;;;10.55;76.32
9141;BME280;46330;50.822;7.126;2023-03-20T09:19:20;101404.75;;;10.31;73.56
9141;BME280;46330;50.822;7.126;2023-03-20T09:21:49;101401.34;;;10.15;74.28
9141;BME280;46330;50.822;7.126;2023-03-20T09:24:17;101399.53;;;10.34;74.42
9141;BME280;46330;50.822;7.126;2023-03-20T09:26:45;101409.78;;;10.61;73.39
9141;BME280;46330;50.822;7.126;2023-03-20T09:29:13;101409.00;;;10.48;71.41
9141;BME280;46330;50.822;7.126;2023-03-20T09:31:40;101400.53;;;9.98;72.48
9141;BME280;46330;50.822;7.126;2023-03-20T09:34:09;101404.16;;;9.66;70.47
9141;BME280;46330;50.822;7.126;2023-03-20T09:36:37;101406.78;;;9.57;72.75
9141;BME280;46330;50.822;7.126;2023-03-20T09:39:06;101412.88;;;9.64;72.76
9141;BME280;46330;50.822;7.126;2023-03-20T09:41:34;101409.28;;;9.92;73.35
9141;BME280;46330;50.822;7.126;2023-03-20T09:44:34;101412.81;;;9.87;72.60
9141;BME280;46330;50.822;7.126;2023-03-20T09:47:09;101412.78;;;9.90;71.84
9141;BME280;46330;50.822;7.126;2023-03-20T09:49:55;101415.31;;;10.05;70.01
9141;BME280;46330;50.822;7.126;2023-03-20T09:52:27;101409.19;;;10.21;69.21
9141;BME280;46330;50.822;7.126;2023-03-20T09:55:00;101411.81;;;10.07;70.64
9141;BME280;46330;50.822;7.126;2023-03-20T09:57:34;101409.88;;;10.47;69.75
9141;BME280;46330;50.822;7.126;2023-03-20T10:00:06;101410.84;;;10.33;68.10
9141;BME280;46330;50.822;7.126;2023-03-20T10:02:45;101411.63;;;10.44;70.56
9141;BME280;46330;50.822;7.126;2023-03-20T10:05:18;101418.41;;;10.76;69.09
9141;BME280;46330;50.822;7.126;2023-03-20T10:07:48;101421.13;;;10.61;69.30
9141;BME280;46330;50.822;7.126;2023-03-20T10:10:17;101414.41;;;10.10;68.90
9141;BME280;46330;50.822;7.126;2023-03-20T10:12:59;101411.84;;;10.04;69.64
9141;BME280;46330;50.822;7.126;2023-03-20T10:15:39;101408.28;;;10.23;68.60
9141;BME280;46330;50.822;7.126;2023-03-20T10:18:15;101402.19;;;10.21;68.44
9141;BME280;46330;50.822;7.126;2023-03-20T10:20:52;101412.47;;;10.50;69.70
9141;BME280;46330;50.822;7.126;2023-03-20T10:23:26;101405.34;;;10.73;68.67
9141;BME280;46330;50.822;7.126;2023-03-20T10:26:02;101403.53;;;10.82;68.59
9141;BME280;46330;50.822;7.126;2023-03-20T10:28:36;101395.19;;;11.36;67.75
9141;BME280;46330;50.822;7.126;2023-03-20T10:31:18;101402.31;;;11.19;65.57
9141;BME280;46330;50.822;7.126;2023-03-20T10:33:58;101393.44;;;11.33;64.90
9141;BME280;46330;50.822;7.126;2023-03-20T10:36:37;101398.97;;;11.87;65.09
9141;BME280;46330;50.822;7.126;2023-03-20T10:39:12;101393.00;;;11.76;65.67
9141;BME280;46330;50.822;7.126;2023-03-20T10:41:51;101392.19;;;11.71;65.46
9141;BME280;46330;50.822;7.126;2023-03-20T10:44:27;101390.63;;;11.53;64.08
9141;BME280;46330;50.822;7.126;2023-03-20T10:46:58;101399.25;;;11.61;64.99
9141;BME280;46330;50.822;7.126;2023-03-20T10:49:32;101381.56;;;11.81;64.62
9141;BME280;46330;50.822;7.126;2023-03-20T10:52:06;101393.09;;;11.67;64.78
9141;BME280;46330;50.822;7.126;2023-03-20T10:54:40;101386.19;;;11.58;63.45
9141;BME280;46330;50.822;7.126;2023-03-20T10:57:14;101391.06;;;11.11;63.70
9141;BME280;46330;50.822;7.126;2023-03-20T10:59:47;101389.91;;;11.38;65.73
9141;BME280;46330;50.822;7.126;2023-03-20T11:02:18;101387.19;;;11.47;65.13
9141;BME280;46330;50.822;7.126;2023-03-20T11:04:46;101389.81;;;11.47;65.27
9141;BME280;46330;50.822;7.126;2023-03-20T11:07:20;101390.63;;;11.55;63.47
9141;BME280;46330;50.822;7.126;2023-03-20T11:10:09;101390.75;;;11.41;64.70
9141;BME280;46330;50.822;7.126;2023-03-20T11:12:40;101387.25;;;11.41;64.50
9141;BME280;46330;50.822;7.126;2023-03-20T11:15:18;101385.16;;;10.88;64.09
9141;BME280;46330;50.822;7.126;2023-03-20T11:17:52;101382.75;;;10.60;64.19
9141;BME280;46330;50.822;7.126;2023-03-20T11:20:21;101382.78;;;10.56;64.76
9141;BME280;46330;50.822;7.126;2023-03-20T11:22:56;101378.34;;;10.70;66.35
9141;BME280;46330;50.822;7.126;2023-03-20T11:25:29;101377.41;;;10.77;65.97
9141;BME280;46330;50.822;7.126;2023-03-20T11:28:18;101381.75;;;10.79;65.15
9141;BME280;46330;50.822;7.126;2023-03-20T11:30:47;101371.97;;;10.98;65.59
9141;BME280;46330;50.822;7.126;2023-03-20T11:33:31;101371.03;;;11.08;65.93
9141;BME280;46330;50.822;7.126;2023-03-20T11:36:00;101366.16;;;10.63;65.64
9141;BME280;46330;50.822;7.126;2023-03-20T11:38:29;101363.38;;;10.84;66.98
9141;BME280;46330;50.822;7.126;2023-03-20T11:40:58;101371.03;;;11.05;64.74
9141;BME280;46330;50.822;7.126;2023-03-20T11:43:27;101359.66;;;11.11;66.10
9141;BME280;46330;50.822;7.126;2023-03-20T11:45:57;101363.91;;;11.18;64.98
9141;BME280;46330;50.822;7.126;2023-03-20T11:48:36;101353.50;;;11.12;64.96
9141;BME280;46330;50.822;7.126;2023-03-20T11:51:06;101355.69;;;10.67;63.48
9141;BME280;46330;50.822;7.126;2023-03-20T11:53:38;101360.00;;;10.73;64.39
9141;BME280;46330;50.822;7.126;2023-03-20T11:56:08;101353.00;;;10.76;65.18
9141;BME280;46330;50.822;7.126;2023-03-20T11:58:54;101356.31;;;10.94;66.39
9141;BME280;46330;50.822;7.126;2023-03-20T12:01:24;101349.50;;;10.76;65.03
9141;BME280;46330;50.822;7.126;2023-03-20T12:04:00;101353.06;;;10.66;66.12
9141;BME280;46330;50.822;7.126;2023-03-20T12:06:43;101349.38;;;10.88;68.57
9141;BME280;46330;50.822;7.126;2023-03-20T12:09:26;101345.13;;;10.79;67.61
9141;BME280;46330;50.822;7.126;2023-03-20T12:11:58;101344.41;;;10.61;67.32
9141;BME280;46330;50.822;7.126;2023-03-20T12:14:34;101335.72;;;10.53;64.54
9141;BME280;46330;50.822;7.126;2023-03-20T12:20:32;101325.97;;;10.73;62.03
9141;BME280;46330;50.822;7.126;2023-03-20T12:23:11;101334.00;;;10.52;63.99
9141;BME280;46330;50.822;7.126;2023-03-20T12:25:44;101332.28;;;10.48;61.04
9141;BME280;46330;50.822;7.126;2023-03-20T12:28:19;101326.16;;;10.50;58.75
9141;BME280;46330;50.822;7.126;2023-03-20T12:31:00;101326.69;;;10.89;60.18
9141;BME280;46330;50.822;7.126;2023-03-20T12:33:37;101323.03;;;11.06;59.41
9141;BME280;46330;50.822;7.126;2023-03-20T12:36:12;101317.00;;;10.98;59.07
9141;BME280;46330;50.822;7.126;2023-03-20T12:38:40;101318.81;;;10.90;58.46
9141;BME280;46330;50.822;7.126;2023-03-20T12:41:12;101323.16;;;10.96;57.42
9141;BME280;46330;50.822;7.126;2023-03-20T12:43:59;101315.53;;;10.68;58.09
9141;BME280;46330;50.822;7.126;2023-03-20T12:46:38;101313.44;;;11.08;59.52
9141;BME280;46330;50.822;7.126;2023-03-20T12:49:29;101319.91;;;10.69;58.70
9141;BME280;46330;50.822;7.126;2023-03-20T12:52:05;101306.59;;;10.92;59.80
9141;BME280;46330;50.822;7.126;2023-03-20T12:55:00;101297.59;;;11.19;59.29
9141;BME280;46330;50.822;7.126;2023-03-20T12:57:36;101300.16;;;11.22;58.15
9141;BME280;46330;50.822;7.126;2023-03-20T13:00:15;101304.31;;;10.57;58.87
9141;BME280;46330;50.822;7.126;2023-03-20T13:02:56;101293.50;;;10.95;59.63
9141;BME280;46330;50.822;7.126;2023-03-20T13:05:35;101301.69;;;10.57;60.73
9141;BME280;46330;50.822;7.126;2023-03-20T13:08:26;101297.84;;;10.93;61.79
9141;BME280;46330;50.822;7.126;2023-03-20T13:11:06;101299.31;;;11.18;63.39
9141;BME280;46330;50.822;7.126;2023-03-20T13:13:42;101299.53;;;11.00;61.47
9141;BME280;46330;50.822;7.126;2023-03-20T13:16:20;101309.53;;;10.60;61.91
9141;BME280;46330;50.822;7.126;2023-03-20T13:18:58;101294.53;;;10.79;62.41
9141;BME280;46330;50.822;7.126;2023-03-20T13:21:32;101297.78;;;10.99;63.16
9141;BME280;46330;50.822;7.126;2023-03-20T13:24:24;101287.06;;;11.23;61.69
9141;BME280;46330;50.822;7.126;2023-03-20T13:27:00;101288.19;;;11.00;60.72
9141;BME280;46330;50.822;7.126;2023-03-20T13:29:33;101295.34;;;10.81;60.88
9141;BME280;46330;50.822;7.126;2023-03-20T13:32:16;101291.81;;;10.90;61.08
9141;BME280;46330;50.822;7.126;2023-03-20T13:37:40;101281.75;;;11.29;61.97
9141;BME280;46330;50.822;7.126;2023-03-20T13:40:15;101283.50;;;11.29;61.17
9141;BME280;46330;50.822;7.126;2023-03-20T13:42:51;101289.19;;;11.61;60.94
9141;BME280;46330;50.822;7.126;2023-03-20T13:45:25;101284.81;;;11.62;60.29
9141;BME280;46330;50.822;7.126;2023-03-20T13:48:00;101279.66;;;11.57;62.42
9141;BME280;46330;50.822;7.126;2023-03-20T13:50:38;101282.16;;;11.65;62.15
9141;BME280;46330;50.822;7.126;2023-03-20T13:53:18;101281.09;;;11.81;60.82